Time;durP1;ratioP1;P1;durP2;ratioP2;P2;SDS_P1;SDS_P2;PMS_P1;PMS_P2;Temp;Humidity;BMP_temperature;BMP_pressure;BME280_temperature;BME280_humidity;BME280_pressure;Samples;Min_cycle;Max_cycle;Signal;HPM_P1;HPM_P2
2021/03/14 00:02:42;;;;;;;2.93;1.83;;;;;;;5.05;73.68;97419.25;2178017;81;21121;-77
2021/03/14 00:05:43;;;;;;;2.27;1.97;;;;;;;4.98;73.42;97417.45;2178944;81;21387;-77
2021/03/14 00:08:46;;;;;;;3.87;2.30;;;;;;;4.95;73.49;97421.73;2179613;81;21252;-77
2021/03/14 00:11:48;;;;;;;3.75;2.25;;;;;;;4.91;73.56;97406.60;2179761;81;21103;-77
2021/03/14 00:14:49;;;;;;;3.30;2.07;;;;;;;4.86;73.61;97401.80;2179660;81;21078;-77
2021/03/14 00:17:51;;;;;;;5.37;2.30;;;;;;;4.84;73.89;97398.34;2179916;81;21503;-77
2021/03/14 00:20:52;;;;;;;3.17;1.93;;;;;;;4.86;74.01;97413.44;2179297;81;21110;-77
2021/03/14 00:23:54;;;;;;;2.03;1.77;;;;;;;4.82;73.63;97418.56;2178886;81;21127;-78
2021/03/14 00:26:54;;;;;;;3.23;2.13;;;;;;;4.79;74.31;97425.86;2179201;81;21106;-78
2021/03/14 00:29:56;;;;;;;2.80;2.10;;;;;;;4.72;74.33;97430.51;2179014;81;21193;-77
2021/03/14 00:32:57;;;;;;;1.97;1.77;;;;;;;4.67;74.03;97433.03;2179057;81;21137;-77
2021/03/14 00:35:58;;;;;;;5.00;3.53;;;;;;;4.65;74.26;97432.15;2179344;81;21117;-80
2021/03/14 00:38:59;;;;;;;100.40;64.97;;;;;;;4.67;77.35;97414.95;2180806;81;21110;-79
2021/03/14 00:42:00;;;;;;;73.87;48.67;;;;;;;8.20;84.84;97407.00;2179516;81;21402;-80
2021/03/14 00:45:01;;;;;;;73.03;45.70;;;;;;;11.45;76.75;97394.08;2180323;81;21129;-80
2021/03/14 00:48:03;;;;;;;18.67;14.50;;;;;;;13.53;69.79;97383.28;2180903;81;21082;-81
2021/03/14 00:51:04;;;;;;;30.30;21.57;;;;;;;14.91;64.39;97373.65;2180823;81;21418;-80
2021/03/14 00:54:08;;;;;;;70.87;48.17;;;;;;;15.90;59.33;97377.23;2180999;81;21240;-81
2021/03/14 00:57:09;;;;;;;12.37;9.45;;;;;;;16.61;56.42;97388.44;2180916;81;21114;-81
2021/03/14 01:00:10;;;;;;;63.05;43.98;;;;;;;17.15;52.90;97393.51;2167509;81;21139;-81
2021/03/14 01:03:11;;;;;;;41.35;26.87;;;;;;;17.48;51.33;97382.62;2162781;82;21253;-78
2021/03/14 01:06:12;;;;;;;7.17;5.45;;;;;;;17.33;47.32;97376.59;2162143;82;21128;-78
2021/03/14 01:09:13;;;;;;;5.30;3.25;;;;;;;14.49;46.49;97382.24;2162166;82;21141;-77
2021/03/14 01:12:15;;;;;;;3.60;2.92;;;;;;;12.07;49.10;97390.94;2162373;82;21254;-77
2021/03/14 01:15:17;;;;;;;3.55;2.87;;;;;;;10.43;51.57;97384.91;2162286;82;21345;-77
2021/03/14 01:18:18;;;;;;;3.27;2.50;;;;;;;9.24;53.84;97394.51;2162614;82;21119;-76
2021/03/14 01:21:19;;;;;;;3.27;2.73;;;;;;;8.20;55.98;97386.20;2162419;82;21233;-77
2021/03/14 01:24:26;;;;;;;5.07;2.97;;;;;;;7.41;58.10;97390.11;2162121;82;21118;-77
2021/03/14 01:27:27;;;;;;;4.53;2.97;;;;;;;6.78;59.64;97390.80;2162282;82;21127;-77
2021/03/14 01:30:28;;;;;;;5.60;3.00;;;;;;;6.34;61.18;97392.77;2162225;82;21277;-77
2021/03/14 01:33:29;;;;;;;4.47;3.07;;;;;;;5.97;62.77;97389.05;2162114;82;21225;-76
2021/03/14 01:36:30;;;;;;;7.33;3.43;;;;;;;5.71;64.06;97388.84;2162019;82;21114;-76
2021/03/14 01:39:31;;;;;;;4.50;2.93;;;;;;;5.51;64.93;97392.98;2162104;82;21264;-76
2021/03/14 01:42:32;;;;;;;5.30;2.93;;;;;;;5.18;66.55;97396.10;2162599;82;21333;-76
2021/03/14 01:45:33;;;;;;;3.83;2.93;;;;;;;5.18;66.55;97396.10;2161934;82;21082;-76
2021/03/14 01:48:35;;;;;;;4.43;2.80;;;;;;;5.08;67.24;97395.14;2162134;82;21249;-77
2021/03/14 01:51:39;;;;;;;4.17;3.13;;;;;;;4.98;67.91;97391.59;2162202;82;21157;-76
2021/03/14 01:54:40;;;;;;;6.33;3.27;;;;;;;4.91;68.19;97391.09;2162682;82;21107;-76
2021/03/14 01:57:41;;;;;;;4.07;3.10;;;;;;;4.85;68.54;97387.14;2162143;82;21107;-76
2021/03/14 02:00:42;;;;;;;4.13;3.30;;;;;;;4.82;68.98;97385.81;2176952;82;21134;-76
2021/03/14 02:03:43;;;;;;;5.83;3.60;;;;;;;4.80;69.24;97384.94;2179772;81;21395;-76
2021/03/14 02:06:44;;;;;;;6.90;3.47;;;;;;;4.79;69.57;97390.53;2179459;81;21118;-76
2021/03/14 02:09:45;;;;;;;4.60;3.37;;;;;;;4.78;70.01;97387.50;2179637;81;21106;-76
2021/03/14 02:12:46;;;;;;;5.10;3.07;;;;;;;4.81;70.01;97386.67;2179556;81;21387;-77
2021/03/14 02:15:48;;;;;;;6.27;3.80;;;;;;;4.78;69.97;97400.85;2179754;81;21113;-76
2021/03/14 02:18:49;;;;;;;5.80;3.73;;;;;;;4.73;70.24;97399.51;2179511;82;21114;-77
2021/03/14 02:21:50;;;;;;;4.57;3.20;;;;;;;4.66;70.11;97402.00;2179529;81;21118;-76
2021/03/14 02:24:51;;;;;;;5.53;3.30;;;;;;;4.62;70.30;97397.22;2179756;81;21118;-76
2021/03/14 02:27:52;;;;;;;4.93;3.40;;;;;;;4.69;70.32;97403.33;2179535;81;21126;-76
2021/03/14 02:30:53;;;;;;;11.70;4.83;;;;;;;4.67;70.51;97398.57;2179506;81;21157;-76
2021/03/14 02:33:54;;;;;;;6.47;3.67;;;;;;;4.67;70.57;97398.57;2179554;81;21109;-76
2021/03/14 02:36:55;;;;;;;5.77;3.10;;;;;;;4.65;70.48;97391.22;2179604;81;21229;-76
2021/03/14 02:39:56;;;;;;;6.10;3.73;;;;;;;4.62;70.45;97388.60;2179578;81;21450;-77
2021/03/14 02:42:57;;;;;;;4.27;3.43;;;;;;;4.55;70.60;97385.50;2179789;81;21353;-76
2021/03/14 02:45:58;;;;;;;4.67;3.23;;;;;;;4.52;70.78;97387.63;2179508;81;21118;-76
2021/03/14 02:48:59;;;;;;;5.27;3.80;;;;;;;4.51;70.91;97384.59;2179461;81;21398;-76
2021/03/14 02:52:02;;;;;;;7.20;3.90;;;;;;;4.48;70.94;97383.27;2179589;81;21113;-77
2021/03/14 02:55:03;;;;;;;6.17;3.40;;;;;;;4.46;71.00;97376.79;2180054;81;21244;-78
2021/03/14 02:58:10;;;;;;;5.47;3.60;;;;;;;4.46;71.01;97384.96;2179544;81;21145;-78
2021/03/14 03:01:12;;;;;;;4.87;3.50;;;;;;;4.46;71.06;97383.25;2179399;81;21415;-77
2021/03/14 03:04:16;;;;;;;4.87;3.43;;;;;;;4.41;71.05;97389.20;2179493;81;21105;-76
2021/03/14 03:07:17;;;;;;;5.10;3.87;;;;;;;4.33;71.21;97386.48;2179308;81;21110;-77
2021/03/14 03:10:18;;;;;;;5.40;3.57;;;;;;;4.26;71.38;97395.44;2178442;81;21173;-77
2021/03/14 03:13:19;;;;;;;6.23;3.60;;;;;;;4.16;71.51;97403.05;2178547;81;21249;-77
2021/03/14 03:16:21;;;;;;;4.87;3.27;;;;;;;4.10;71.68;97417.59;2178081;82;21095;-76
2021/03/14 03:19:22;;;;;;;5.30;3.40;;;;;;;4.07;71.79;97422.72;2178126;81;21586;-77
2021/03/14 03:22:23;;;;;;;7.50;4.17;;;;;;;4.08;71.89;97429.62;2178119;81;21130;-76
2021/03/14 03:25:24;;;;;;;5.23;3.33;;;;;;;4.09;72.01;97426.19;2178992;81;21121;-76
2021/03/14 03:28:25;;;;;;;4.87;3.73;;;;;;;4.02;71.70;97425.66;2179718;81;21126;-77
2021/03/14 03:31:26;;;;;;;6.67;3.80;;;;;;;3.92;71.85;97422.07;2179672;81;21166;-77
2021/03/14 03:34:27;;;;;;;5.33;4.03;;;;;;;3.90;72.06;97428.92;2179786;81;21118;-76
2021/03/14 03:37:28;;;;;;;6.30;4.33;;;;;;;3.88;72.22;97421.58;2179530;81;21438;-76
2021/03/14 03:40:32;;;;;;;9.23;4.57;;;;;;;3.86;72.32;97422.40;2179653;81;21412;-76
2021/03/14 03:43:33;;;;;;;9.48;4.60;;;;;;;3.88;72.68;97422.00;2180143;82;21240;-76
2021/03/14 03:46:37;;;;;;;9.13;5.00;;;;;;;3.97;72.75;97428.59;2179495;82;21131;-76
2021/03/14 03:49:38;;;;;;;10.13;6.13;;;;;;;4.03;72.94;97437.72;2180027;81;21191;-76
2021/03/14 03:52:39;;;;;;;8.70;5.77;;;;;;;4.10;72.83;97437.83;2179961;81;21257;-76
2021/03/14 03:55:40;;;;;;;7.43;4.73;;;;;;;4.18;72.79;97442.23;2179672;81;21078;-77
2021/03/14 03:58:41;;;;;;;7.33;5.30;;;;;;;4.19;72.36;97434.94;2179414;81;21400;-77
2021/03/14 04:01:42;;;;;;;10.50;5.83;;;;;;;4.14;72.39;97434.88;2162433;82;21246;-77
2021/03/14 04:04:46;;;;;;;8.60;6.47;;;;;;;4.12;72.63;97431.40;2162244;82;21238;-77
2021/03/14 04:07:48;;;;;;;9.35;6.47;;;;;;;4.12;72.56;97424.52;2161654;82;21237;-77
2021/03/14 04:10:49;;;;;;;9.50;5.87;;;;;;;4.11;72.61;97431.82;2161671;82;21158;-77
2021/03/14 04:13:54;;;;;;;8.60;5.87;;;;;;;4.14;72.69;97433.16;2161969;82;21119;-78
2021/03/14 04:16:55;;;;;;;12.50;7.80;;;;;;;4.16;72.47;97434.47;2162128;82;21237;-80
2021/03/14 04:19:56;;;;;;;29.03;19.50;;;;;;;4.80;82.47;97427.59;2162605;82;21180;-81
2021/03/14 04:22:57;;;;;;;47.17;30.63;;;;;;;8.82;83.83;97417.72;2162319;82;21111;-79
2021/03/14 04:25:58;;;;;;;24.70;15.77;;;;;;;11.74;76.39;97404.09;2162109;82;21115;-76
2021/03/14 04:28:59;;;;;;;11.90;7.20;;;;;;;12.25;61.66;97414.64;2162072;82;21234;-77
2021/03/14 04:32:00;;;;;;;11.47;6.50;;;;;;;10.22;60.04;97412.05;2162091;82;21305;-76
2021/03/14 04:35:01;;;;;;;10.50;6.20;;;;;;;8.76;60.23;97416.44;2161749;82;21119;-76
2021/03/14 04:38:02;;;;;;;11.13;5.47;;;;;;;7.70;61.21;97411.33;2160816;82;21408;-77
2021/03/14 04:41:04;;;;;;;10.83;5.63;;;;;;;6.30;63.18;97416.50;2161141;82;21226;-76
2021/03/14 04:44:05;;;;;;;11.40;5.60;;;;;;;6.30;63.18;97416.50;2161119;82;21230;-75
2021/03/14 04:47:06;;;;;;;10.80;5.77;;;;;;;5.94;64.13;97411.05;2161136;82;21534;-76
2021/03/14 04:50:07;;;;;;;8.83;4.77;;;;;;;5.63;64.82;97414.66;2161814;82;21138;-77
2021/03/14 04:53:08;;;;;;;8.83;5.57;;;;;;;5.21;66.20;97405.22;2161242;82;21261;-76
2021/03/14 04:56:09;;;;;;;9.67;5.53;;;;;;;5.21;66.20;97405.22;2160352;82;21126;-77
2021/03/14 04:59:10;;;;;;;13.10;4.83;;;;;;;5.86;66.60;97403.19;2160454;81;21249;-77
2021/03/14 05:02:11;;;;;;;10.23;4.53;;;;;;;5.56;65.74;97418.06;2160275;82;21127;-77
2021/03/14 05:05:12;;;;;;;9.10;4.97;;;;;;;5.27;66.04;97414.33;2159751;82;21250;-77
2021/03/14 05:08:13;;;;;;;8.33;4.50;;;;;;;5.02;66.44;97417.93;2160790;82;21127;-77
2021/03/14 05:11:14;;;;;;;7.87;4.23;;;;;;;4.83;66.94;97417.28;2161258;82;21277;-77
2021/03/14 05:14:15;;;;;;;10.07;4.13;;;;;;;4.69;67.32;97411.09;2161137;82;21083;-77
2021/03/14 05:17:17;;;;;;;27.60;16.73;;;;;;;4.65;67.75;97411.90;2160223;82;22037;-80
2021/03/14 05:20:19;;;;;;;35.17;21.63;;;;;;;4.94;74.68;97404.05;2140743;82;21149;-80
2021/03/14 05:23:20;;;;;;;84.67;56.77;;;;;;;8.81;74.92;97393.87;2163233;82;21242;-80
2021/03/14 05:26:21;;;;;;;88.27;56.10;;;;;;;11.90;67.43;97394.28;2162385;82;21224;-83
2021/03/14 05:29:24;;;;;;;28.93;20.10;;;;;;;13.73;61.46;97379.73;2161892;82;21271;-80
2021/03/14 05:32:25;;;;;;;67.07;44.63;;;;;;;15.13;57.40;97376.06;2161850;82;21115;-80
2021/03/14 05:35:26;;;;;;;72.53;49.97;;;;;;;16.19;54.31;97377.58;2162766;82;21115;-80
2021/03/14 05:38:27;;;;;;;190.75;142.37;;;;;;;16.95;51.34;97384.16;2162099;82;21142;-83
2021/03/14 05:41:29;;;;;;;35.80;23.27;;;;;;;17.44;48.34;97377.92;2162148;82;21385;-77
2021/03/14 05:44:30;;;;;;;11.03;7.67;;;;;;;16.40;43.94;97386.06;2161505;82;21523;-77
2021/03/14 05:47:31;;;;;;;9.53;5.33;;;;;;;13.62;44.53;97388.31;2161469;82;21135;-77
2021/03/14 05:50:33;;;;;;;6.80;4.80;;;;;;;11.46;47.03;97386.22;2161084;82;21288;-77
2021/03/14 05:53:34;;;;;;;5.83;4.47;;;;;;;10.02;49.51;97386.13;2161464;82;21139;-76
2021/03/14 05:56:35;;;;;;;7.43;4.80;;;;;;;8.92;51.74;97392.08;2160963;82;21257;-77
2021/03/14 05:59:36;;;;;;;9.37;4.57;;;;;;;8.13;53.54;97396.61;2160212;81;21163;-78
2021/03/14 06:02:37;;;;;;;7.57;4.60;;;;;;;7.57;55.22;97404.83;2159298;82;21591;-79
2021/03/14 06:05:38;;;;;;;25.87;14.50;;;;;;;7.18;56.86;97413.86;2159887;82;21102;-79
2021/03/14 06:08:39;;;;;;;23.80;15.17;;;;;;;7.08;61.90;97427.24;2160551;82;22113;-79
2021/03/14 06:11:40;;;;;;;11.50;5.07;;;;;;;10.69;59.70;97415.49;2160378;82;21174;-78
2021/03/14 06:14:42;;;;;;;9.33;4.63;;;;;;;12.11;51.20;97422.69;2160360;81;21110;-78
2021/03/14 06:17:43;;;;;;;8.13;4.60;;;;;;;10.56;51.22;97444.34;2160976;82;21185;-77
2021/03/14 06:20:44;;;;;;;7.63;4.23;;;;;;;9.38;52.80;97447.81;2160491;82;21262;-77
2021/03/14 06:23:45;;;;;;;7.47;4.30;;;;;;;8.63;54.27;97447.23;2160479;82;21253;-78
2021/03/14 06:26:46;;;;;;;6.83;4.37;;;;;;;8.16;55.54;97441.66;2160924;82;21532;-78
2021/03/14 06:29:48;;;;;;;11.50;4.70;;;;;;;7.76;56.70;97443.80;2160881;82;21158;-77
2021/03/14 06:32:50;;;;;;;7.83;5.27;;;;;;;7.47;57.91;97453.72;2139622;82;21901;-77
2021/03/14 06:35:52;;;;;;;7.17;5.10;;;;;;;7.27;58.39;97451.52;2161881;81;21420;-78
2021/03/14 06:38:53;;;;;;;8.47;5.00;;;;;;;7.15;58.92;97452.78;2161503;82;21245;-77
2021/03/14 06:41:57;;;;;;;8.28;5.00;;;;;;;7.07;59.58;97450.59;2162005;82;21248;-77
2021/03/14 06:44:58;;;;;;;9.13;5.23;;;;;;;6.99;60.06;97467.00;2161127;82;21248;-77
2021/03/14 06:47:59;;;;;;;8.70;4.70;;;;;;;6.96;60.24;97466.12;2161086;82;21123;-76
2021/03/14 06:51:00;;;;;;;7.67;4.97;;;;;;;6.94;60.45;97472.59;2161720;82;21190;-77
2021/03/14 06:54:01;;;;;;;8.30;5.17;;;;;;;6.90;60.77;97482.49;2161112;82;21147;-77
2021/03/14 06:57:02;;;;;;;8.27;5.27;;;;;;;6.87;61.07;97481.18;2161437;82;21245;-77
2021/03/14 07:00:03;;;;;;;9.20;4.27;;;;;;;6.87;61.07;97483.77;2162297;81;21428;-78
2021/03/14 07:03:05;;;;;;;10.17;4.73;;;;;;;6.89;61.12;97492.43;2162003;82;21542;-79
2021/03/14 07:06:09;;;;;;;9.60;4.83;;;;;;;6.92;61.06;97488.98;2162111;82;21122;-77
2021/03/14 07:09:10;;;;;;;6.70;4.47;;;;;;;6.97;61.18;97481.69;2161282;82;21147;-78
2021/03/14 07:12:11;;;;;;;8.33;5.60;;;;;;;7.06;61.03;97482.16;2161140;82;21547;-77
2021/03/14 07:15:12;;;;;;;8.43;5.00;;;;;;;7.06;61.03;97482.16;2161862;82;21411;-77
2021/03/14 07:18:14;;;;;;;7.73;5.07;;;;;;;7.15;61.02;97481.32;2162115;82;21515;-77
2021/03/14 07:21:17;;;;;;;10.77;6.27;;;;;;;7.24;61.00;97473.57;2161975;82;21241;-77
2021/03/14 07:24:18;;;;;;;9.63;6.20;;;;;;;7.26;61.07;97479.63;2162181;82;21261;-77
2021/03/14 07:27:19;;;;;;;9.37;6.17;;;;;;;7.24;61.24;97490.01;2161560;82;21237;-78
2021/03/14 07:30:20;;;;;;;10.80;6.40;;;;;;;7.14;61.35;97479.16;2161478;82;21594;-77
2021/03/14 07:33:21;;;;;;;9.70;6.77;;;;;;;7.09;61.49;97478.28;2162234;82;21241;-78
2021/03/14 07:36:28;;;;;;;11.53;6.53;;;;;;;7.24;61.27;97478.76;2162523;82;21118;-78
2021/03/14 07:39:29;;;;;;;15.03;7.83;;;;;;;7.47;61.20;97474.49;2162028;82;21245;-77
2021/03/14 07:42:30;;;;;;;12.00;7.37;;;;;;;7.58;61.08;97467.59;2162130;82;21495;-77
2021/03/14 07:45:31;;;;;;;11.60;7.17;;;;;;;7.60;61.14;97476.25;2161817;82;21221;-78
2021/03/14 07:48:32;;;;;;;12.37;7.10;;;;;;;7.77;60.94;97480.60;2162084;82;21087;-78
2021/03/14 07:51:33;;;;;;;10.83;6.53;;;;;;;8.03;60.73;97485.84;2162340;82;21135;-78
2021/03/14 07:54:34;;;;;;;9.83;6.47;;;;;;;8.29;60.70;97500.57;2162143;82;21217;-78
2021/03/14 07:57:41;;;;;;;9.13;5.63;;;;;;;8.65;60.07;97507.05;2162055;82;21520;-78
2021/03/14 08:00:43;;;;;;;9.30;6.03;;;;;;;8.73;58.96;97514.01;2167677;81;21130;-78
2021/03/14 08:03:44;;;;;;;6.63;5.20;;;;;;;8.76;59.08;97519.20;2179378;81;21078;-79
2021/03/14 08:06:45;;;;;;;21.37;12.50;;;;;;;8.90;58.41;97526.98;2179547;81;21082;-77
2021/03/14 08:09:46;;;;;;;8.43;5.30;;;;;;;8.83;58.80;97514.42;2179848;81;21268;-77
2021/03/14 08:12:47;;;;;;;9.13;7.30;;;;;;;8.75;58.38;97516.61;2179552;81;21082;-78
2021/03/14 08:15:48;;;;;;;8.73;5.83;;;;;;;8.60;58.34;97518.77;2179732;82;21133;-77
2021/03/14 08:18:49;;;;;;;13.80;6.53;;;;;;;8.51;58.59;97523.55;2179486;81;21126;-78
2021/03/14 08:21:50;;;;;;;13.80;7.03;;;;;;;8.51;58.90;97528.75;2179707;81;21114;-77
2021/03/14 08:24:51;;;;;;;11.10;5.93;;;;;;;8.57;58.87;97526.58;2178974;81;21995;-78
2021/03/14 08:27:52;;;;;;;12.30;7.57;;;;;;;8.69;58.46;97528.33;2179591;81;21257;-77
2021/03/14 08:30:53;;;;;;;9.33;5.73;;;;;;;8.81;58.33;97531.77;2180019;81;21157;-78
2021/03/14 08:33:54;;;;;;;10.27;5.77;;;;;;;9.00;57.51;97537.80;2178835;81;21142;-77
2021/03/14 08:36:56;;;;;;;8.83;4.90;;;;;;;9.21;57.43;97539.46;2178760;81;21134;-76
2021/03/14 08:39:59;;;;;;;8.17;5.23;;;;;;;9.25;56.76;97540.75;2178654;81;21443;-78
2021/03/14 08:43:00;;;;;;;7.03;5.07;;;;;;;9.20;55.44;97543.80;2178975;82;21431;-77
2021/03/14 08:46:01;;;;;;;10.63;5.47;;;;;;;9.22;55.86;97555.52;2179728;81;21118;-77
2021/03/14 08:49:02;;;;;;;12.37;5.03;;;;;;;9.11;55.42;97554.68;2179825;81;21110;-77
2021/03/14 08:52:03;;;;;;;8.50;4.73;;;;;;;9.08;56.00;97548.19;2179481;81;21122;-77
2021/03/14 08:55:04;;;;;;;7.40;5.20;;;;;;;8.98;56.00;97545.17;2178682;81;21269;-78
2021/03/14 08:58:05;;;;;;;10.00;5.40;;;;;;;9.07;55.82;97569.44;2178458;82;21129;-76
2021/03/14 09:01:06;;;;;;;10.67;5.20;;;;;;;9.26;56.06;97579.37;2171862;81;21355;-78
2021/03/14 09:04:07;;;;;;;15.07;6.50;;;;;;;9.37;55.11;97581.50;2161834;82;21119;-77
2021/03/14 09:07:08;;;;;;;15.27;6.57;;;;;;;9.42;51.24;97578.88;2162217;81;21257;-78
2021/03/14 09:10:10;;;;;;;13.37;4.30;;;;;;;9.79;60.22;97577.00;2162413;82;21285;-79
2021/03/14 09:13:11;;;;;;;7.13;4.17;;;;;;;12.17;55.41;97570.86;2162809;82;21229;-78
2021/03/14 09:16:12;;;;;;;17.67;6.73;;;;;;;13.13;54.67;97568.84;2162586;82;21154;-78
2021/03/14 09:19:13;;;;;;;12.25;3.60;;;;;;;13.85;51.11;97574.84;2162554;82;21258;-79
2021/03/14 09:22:14;;;;;;;10.58;3.70;;;;;;;14.79;44.33;97579.75;2162329;82;21123;-79
2021/03/14 09:25:15;;;;;;;5.60;3.10;;;;;;;14.95;39.92;97580.23;2161793;82;21245;-79
2021/03/14 09:28:16;;;;;;;5.28;2.65;;;;;;;14.52;44.43;97571.20;2161375;82;21242;-78
2021/03/14 09:31:17;;;;;;;8.25;2.90;;;;;;;14.88;47.12;97570.78;2161619;82;21151;-80
2021/03/14 09:34:18;;;;;;;10.68;3.15;;;;;;;15.00;40.09;97566.52;2161802;82;21261;-79
2021/03/14 09:37:19;;;;;;;10.03;3.22;;;;;;;14.43;44.38;97590.66;2162604;82;21400;-79
2021/03/14 09:40:20;;;;;;;8.70;2.60;;;;;;;14.53;42.19;97577.73;2162180;82;21265;-78
2021/03/14 09:43:23;;;;;;;5.22;2.77;;;;;;;14.25;38.84;97587.13;2140304;82;21150;-78
2021/03/14 09:46:24;;;;;;;5.03;2.80;;;;;;;14.06;40.68;97574.00;2162416;82;21126;-78
2021/03/14 09:49:25;;;;;;;10.58;2.62;;;;;;;14.42;40.19;97581.06;2161918;82;21237;-78
2021/03/14 09:52:26;;;;;;;6.85;3.62;;;;;;;15.01;40.42;97566.06;2162151;82;21110;-78
2021/03/14 09:55:27;;;;;;;4.83;2.87;;;;;;;14.87;36.99;97565.11;2161343;82;21246;-78
2021/03/14 09:58:28;;;;;;;5.05;3.10;;;;;;;14.80;42.33;97560.46;2162293;82;21361;-79
2021/03/14 10:01:29;;;;;;;4.37;2.50;;;;;;;15.07;39.36;97560.65;2166070;81;21412;-78
2021/03/14 10:04:30;;;;;;;5.30;2.22;;;;;;;15.36;41.57;97547.58;2172528;82;21126;-79
2021/03/14 10:07:31;;;;;;;3.47;2.33;;;;;;;16.03;38.01;97536.47;2172445;82;21099;-78
2021/03/14 10:10:32;;;;;;;6.45;2.40;;;;;;;16.53;36.06;97544.11;2171868;82;21145;-77
2021/03/14 10:13:33;;;;;;;3.92;2.50;;;;;;;16.66;38.08;97537.16;2171419;82;21435;-77
2021/03/14 10:16:34;;;;;;;5.92;2.45;;;;;;;15.25;34.96;97529.47;2170963;82;21118;-76
2021/03/14 10:19:35;;;;;;;3.95;2.10;;;;;;;14.15;36.28;97531.36;2171450;82;21079;-76
2021/03/14 10:22:36;;;;;;;6.65;2.35;;;;;;;13.61;37.64;97528.16;2171943;82;21113;-77
2021/03/14 10:25:40;;;;;;;9.25;3.20;;;;;;;13.12;38.49;97523.87;2172154;82;21404;-76
2021/03/14 10:28:43;;;;;;;5.57;3.60;;;;;;;12.62;38.22;97528.70;2172303;82;21410;-77
2021/03/14 10:31:44;;;;;;;6.85;3.87;;;;;;;12.12;38.55;97519.44;2172364;82;21146;-77
2021/03/14 10:34:45;;;;;;;6.05;2.60;;;;;;;11.76;40.41;97527.79;2172090;82;21368;-77
2021/03/14 10:37:46;;;;;;;4.80;2.60;;;;;;;11.62;40.99;97548.89;2171758;82;21110;-77
2021/03/14 10:40:48;;;;;;;4.08;2.12;;;;;;;11.92;41.40;97560.72;2172041;82;21407;-77
2021/03/14 10:43:49;;;;;;;5.80;2.70;;;;;;;12.19;41.23;97567.78;2172161;82;21122;-77
2021/03/14 10:46:50;;;;;;;5.70;2.80;;;;;;;12.28;40.52;97567.20;2172431;82;21114;-77
2021/03/14 10:49:52;;;;;;;3.65;2.20;;;;;;;11.95;40.33;97578.11;2171738;82;21443;-77
2021/03/14 10:52:53;;;;;;;5.78;3.05;;;;;;;11.65;40.37;97595.90;2171978;82;21114;-77
2021/03/14 10:55:54;;;;;;;12.50;3.65;;;;;;;11.27;39.65;97614.63;2172123;82;21138;-76
2021/03/14 10:58:58;;;;;;;7.97;2.72;;;;;;;10.93;40.50;97608.84;2172380;82;21086;-77
2021/03/14 11:02:04;;;;;;;8.73;2.62;;;;;;;10.75;40.91;97620.75;2167086;82;21272;-77
2021/03/14 11:05:02;;;;;;;5.72;3.10;;;;;;;10.71;41.62;97601.64;2161531;82;21564;-77
2021/03/14 11:08:03;;;;;;;4.53;2.77;;;;;;;10.84;41.59;97593.27;2162111;82;21233;-77
2021/03/14 11:11:04;;;;;;;4.90;2.60;;;;;;;11.36;40.61;97598.85;2161847;81;21551;-77
2021/03/14 11:14:05;;;;;;;3.42;2.60;;;;;;;11.72;40.79;97593.63;2161743;82;21246;-77
2021/03/14 11:17:07;;;;;;;3.75;2.95;;;;;;;11.82;39.82;97587.88;2162277;82;21242;-76
2021/03/14 11:20:08;;;;;;;7.78;3.37;;;;;;;11.88;40.95;97594.33;2161012;82;21095;-77
2021/03/14 11:23:09;;;;;;;4.92;2.90;;;;;;;11.74;41.01;97597.09;2161607;82;21118;-77
2021/03/14 11:26:10;;;;;;;8.30;3.80;;;;;;;11.55;41.43;97598.20;2161947;82;21237;-77
2021/03/14 11:29:11;;;;;;;15.65;4.10;;;;;;;11.33;41.41;97608.47;2162662;82;21364;-77
2021/03/14 11:32:13;;;;;;;8.40;4.75;;;;;;;11.10;40.85;97603.45;2162134;82;21311;-77
2021/03/14 11:35:14;;;;;;;6.53;3.83;;;;;;;11.11;40.54;97609.10;2162015;82;21130;-77
2021/03/14 11:38:15;;;;;;;10.15;4.20;;;;;;;11.04;41.40;97602.20;2162050;82;21507;-78
2021/03/14 11:41:17;;;;;;;7.20;3.92;;;;;;;11.13;41.67;97613.88;2162306;82;21131;-77
2021/03/14 11:44:18;;;;;;;5.65;2.70;;;;;;;11.13;41.27;97603.42;2161739;82;21262;-77
2021/03/14 11:47:19;;;;;;;10.68;2.98;;;;;;;11.29;41.69;97600.24;2161938;82;21127;-77
2021/03/14 11:50:20;;;;;;;7.78;2.90;;;;;;;11.61;41.68;97603.80;2162156;82;21530;-76
2021/03/14 11:53:23;;;;;;;8.68;4.17;;;;;;;11.76;39.46;97603.16;2161988;82;21118;-76
2021/03/14 11:56:24;;;;;;;11.40;4.00;;;;;;;11.49;39.20;97605.67;2161980;82;21127;-76
2021/03/14 11:59:25;;;;;;;5.62;2.42;;;;;;;11.65;40.17;97608.10;2161008;82;21547;-77
2021/03/14 12:02:26;;;;;;;3.60;2.92;;;;;;;11.84;38.30;97602.23;2172019;81;21264;-78
2021/03/14 12:05:27;;;;;;;8.10;3.40;;;;;;;11.90;39.08;97608.69;2179588;81;21105;-78
2021/03/14 12:08:28;;;;;;;5.95;2.60;;;;;;;11.71;38.44;97601.05;2179861;82;21494;-79
2021/03/14 12:11:29;;;;;;;4.97;2.15;;;;;;;11.73;38.88;97604.95;2179561;81;21162;-77
2021/03/14 12:14:30;;;;;;;3.80;3.08;;;;;;;11.63;38.88;97598.97;2179363;81;21106;-76
2021/03/14 12:17:31;;;;;;;6.80;4.30;;;;;;;11.51;37.72;97611.31;2179257;81;21406;-77
2021/03/14 12:20:36;;;;;;;9.35;5.83;;;;;;;11.32;37.99;97606.73;2180137;81;21086;-77
2021/03/14 12:23:37;;;;;;;12.45;5.67;;;;;;;11.12;38.84;97599.08;2179566;81;21078;-77
2021/03/14 12:26:39;;;;;;;6.53;3.58;;;;;;;11.00;39.28;97596.59;2179800;81;21102;-78
2021/03/14 12:29:40;;;;;;;7.55;4.75;;;;;;;11.20;38.60;97592.47;2179531;82;21233;-77
2021/03/14 12:32:41;;;;;;;6.35;3.17;;;;;;;11.42;37.82;97594.86;2178837;81;21126;-77
2021/03/14 12:35:42;;;;;;;9.60;5.05;;;;;;;11.53;37.46;97593.43;2178254;81;21154;-77
2021/03/14 12:38:43;;;;;;;5.37;3.00;;;;;;;11.63;38.11;97592.87;2179598;81;21118;-77
2021/03/14 12:41:44;;;;;;;4.40;3.17;;;;;;;11.78;38.04;97581.81;2179762;81;21192;-77
2021/03/14 12:44:45;;;;;;;7.45;3.55;;;;;;;11.77;37.46;97579.19;2179625;81;21510;-78
2021/03/14 12:47:47;;;;;;;4.87;2.75;;;;;;;11.64;37.37;97588.94;2179480;81;21111;-77
2021/03/14 12:50:54;;;;;;;4.47;2.50;;;;;;;11.58;36.82;97597.30;2179697;81;21122;-77
2021/03/14 12:53:55;;;;;;;4.28;2.92;;;;;;;11.62;37.08;97588.53;2179578;81;21106;-78
2021/03/14 12:56:56;;;;;;;7.80;5.20;;;;;;;11.58;37.58;97589.02;2179013;81;21070;-78
2021/03/14 12:59:57;;;;;;;7.58;3.50;;;;;;;11.46;38.08;97603.09;2179495;81;21155;-78
2021/03/14 13:02:59;;;;;;;5.97;4.13;;;;;;;11.33;38.03;97610.64;2179071;81;21459;-77
2021/03/14 13:06:00;;;;;;;5.17;3.57;;;;;;;11.13;37.78;97608.64;2179567;81;21110;-77
2021/03/14 13:09:01;;;;;;;11.40;6.23;;;;;;;10.84;37.18;97616.31;2179017;81;21118;-76
2021/03/14 13:12:05;;;;;;;11.30;4.47;;;;;;;10.56;38.26;97627.86;2179053;81;21256;-77
2021/03/14 13:15:05;;;;;;;8.47;4.53;;;;;;;10.33;38.96;97626.69;2178999;81;21149;-76
2021/03/14 13:18:06;;;;;;;9.10;5.80;;;;;;;10.11;40.08;97628.52;2179423;81;21168;-76
2021/03/14 13:21:07;;;;;;;7.93;5.20;;;;;;;9.97;41.34;97632.95;2179578;81;21134;-77
2021/03/14 13:24:09;;;;;;;11.00;5.83;;;;;;;9.98;42.09;97637.73;2179656;81;21114;-77
2021/03/14 13:27:10;;;;;;;8.80;4.90;;;;;;;10.03;42.55;97635.52;2179474;82;21126;-78
2021/03/14 13:30:11;;;;;;;7.70;4.50;;;;;;;10.10;42.87;97641.57;2179573;81;21280;-78
2021/03/14 13:33:12;;;;;;;10.20;5.87;;;;;;;10.09;42.55;97653.73;2179490;82;21125;-78
2021/03/14 13:36:13;;;;;;;7.43;4.47;;;;;;;10.00;42.63;97657.70;2179239;81;21252;-78
2021/03/14 13:39:14;;;;;;;7.77;4.63;;;;;;;9.90;42.70;97659.48;2179618;81;21118;-79
2021/03/14 13:42:15;;;;;;;12.83;7.53;;;;;;;9.82;41.74;97672.11;2179644;81;21150;-78
2021/03/14 13:45:16;;;;;;;10.47;5.97;;;;;;;9.81;42.62;97674.29;2179602;82;21127;-78
2021/03/14 13:48:19;;;;;;;11.43;5.57;;;;;;;9.84;42.82;97677.75;2179508;81;21404;-78
2021/03/14 13:51:23;;;;;;;10.10;6.00;;;;;;;9.82;42.91;97687.31;2179602;82;21542;-78
2021/03/14 13:54:24;;;;;;;12.40;6.10;;;;;;;9.74;42.50;97696.03;2179570;81;21082;-78
2021/03/14 13:57:25;;;;;;;10.60;6.17;;;;;;;9.57;42.14;97707.37;2179341;81;21121;-78
2021/03/14 14:00:26;;;;;;;7.43;4.77;;;;;;;9.38;42.89;97709.55;2179054;81;21126;-78
2021/03/14 14:03:27;;;;;;;7.50;4.87;;;;;;;9.31;43.17;97705.22;2166975;81;21305;-79
2021/03/14 14:06:31;;;;;;;11.27;6.53;;;;;;;9.38;42.77;97713.89;2162259;82;21107;-78
2021/03/14 14:09:32;;;;;;;7.73;4.60;;;;;;;9.38;42.51;97714.75;2162518;82;21526;-78
2021/03/14 14:12:34;;;;;;;8.20;4.53;;;;;;;9.39;42.98;97711.28;2161824;82;21449;-77
2021/03/14 14:15:35;;;;;;;8.87;4.70;;;;;;;9.39;42.86;97713.02;2161542;82;21254;-78